Terminal Aerodrome Forecast
Issued by NWS

Home | Current Version | Previous Version | Text Only | Print | Product List | Glossary On
Versions: 1 2 3 4 5 6 7 8 9 10 11 12 13
000
FTUS41 KLWX 310126 AAA
TAFMTN
TAF AMD
KMTN 310126Z 3101/3124 15005KT P6SM BKN012
      TEMPO 3102/3103 35010KT
     FM310500 VRB03KT 5SM BR SCT090 BKN130
     FM310900 00000KT 3SM BR BKN090
     FM311300 VRB03KT P6SM BKN100
     FM311600 04004KT P6SM SCT250
     FM312100 10004KT P6SM SCT250
      AMD NOT SKED 3102/3112=

USA.gov is the U.S. government's official web portal to all federal, state and local government web resources and services.